createdAt,value
2019-05-07T00:00:05.377Z,6.80
2019-05-07T00:02:37.239Z,11.07
2019-05-07T00:05:12.045Z,7.17
2019-05-07T00:07:52.002Z,8.93
2019-05-07T00:10:25.628Z,7.50
2019-05-07T00:12:58.070Z,6.60
2019-05-07T00:15:29.101Z,8.80
2019-05-07T00:17:58.654Z,6.13
2019-05-07T00:20:35.600Z,10.50
2019-05-07T00:23:08.618Z,9.57
2019-05-07T00:25:43.640Z,7.17
2019-05-07T00:28:34.058Z,6.87
2019-05-07T00:31:03.576Z,8.83
2019-05-07T00:33:36.033Z,7.53
2019-05-07T00:36:14.467Z,8.47
2019-05-07T00:38:48.307Z,7.50
2019-05-07T00:41:36.294Z,8.37
2019-05-07T00:44:08.980Z,10.53
2019-05-07T00:46:40.199Z,8.20
2019-05-07T00:49:09.689Z,7.30
2019-05-07T00:51:39.912Z,5.83
2019-05-07T00:54:13.948Z,9.00
2019-05-07T00:56:47.674Z,8.20
2019-05-07T00:59:18.393Z,12.03
2019-05-07T01:01:54.022Z,6.10
2019-05-07T01:04:25.816Z,9.97
2019-05-07T01:06:58.157Z,7.40
2019-05-07T01:09:27.728Z,9.90
2019-05-07T01:12:05.560Z,5.20
2019-05-07T01:14:37.698Z,10.57
2019-05-07T01:17:13.013Z,10.93
2019-05-07T01:19:44.435Z,7.53
2019-05-07T01:22:16.606Z,9.30
2019-05-07T01:24:52.714Z,9.73
2019-05-07T01:27:26.061Z,6.83
2019-05-07T01:29:57.985Z,8.20
2019-05-07T01:32:50.336Z,10.43
2019-05-07T01:35:29.555Z,8.00
2019-05-07T01:37:59.099Z,11.27
2019-05-07T01:40:32.397Z,7.73
2019-05-07T01:43:07.255Z,9.57
2019-05-07T01:45:49.165Z,7.27
2019-05-07T01:48:43.424Z,6.97
2019-05-07T01:51:13.043Z,7.53
2019-05-07T01:53:44.166Z,9.03
2019-05-07T01:56:14.445Z,7.03
2019-05-07T01:58:45.869Z,12.13
2019-05-07T02:01:17.900Z,8.40
2019-05-07T02:04:06.034Z,7.50
2019-05-07T02:06:42.829Z,10.80
2019-05-07T02:09:25.597Z,7.90
2019-05-07T02:12:13.305Z,7.73
2019-05-07T02:14:46.288Z,8.53
2019-05-07T02:17:18.611Z,7.53
2019-05-07T02:19:48.847Z,11.67
2019-05-07T02:22:19.353Z,7.53
2019-05-07T02:24:49.320Z,6.00
2019-05-07T02:27:22.079Z,8.77
2019-05-07T02:29:53.831Z,8.17
2019-05-07T02:32:25.567Z,8.33
2019-05-07T02:34:57.733Z,7.07
2019-05-07T02:37:48.248Z,7.97
2019-05-07T02:40:23.661Z,6.87
2019-05-07T02:42:55.861Z,8.50
2019-05-07T02:45:34.888Z,10.17
2019-05-07T02:48:06.256Z,8.27
2019-05-07T02:50:43.661Z,9.70
2019-05-07T02:53:22.819Z,5.10
2019-05-07T02:56:03.740Z,6.67
2019-05-07T02:58:35.705Z,5.60
2019-05-07T03:01:05.503Z,6.00
2019-05-07T03:03:38.166Z,5.77
2019-05-07T03:06:08.927Z,7.57
2019-05-07T03:08:38.370Z,6.20
2019-05-07T03:11:14.108Z,8.87
2019-05-07T03:13:46.016Z,7.70
2019-05-07T03:16:37.526Z,9.50
2019-05-07T03:18:55.278Z,7.80
2019-05-07T03:21:28.008Z,9.27
2019-05-07T03:24:15.258Z,7.73
2019-05-07T03:26:46.676Z,8.47
2019-05-07T03:29:24.232Z,6.83
2019-05-07T03:32:17.436Z,7.53
2019-05-07T03:35:07.967Z,7.03
2019-05-07T03:37:38.684Z,9.43
2019-05-07T03:40:14.247Z,8.37
2019-05-07T03:42:44.762Z,6.70
2019-05-07T03:45:25.943Z,6.40
2019-05-07T03:48:13.267Z,8.73
2019-05-07T03:50:43.089Z,9.73
2019-05-07T03:53:14.327Z,6.07
2019-05-07T03:55:44.648Z,7.60
2019-05-07T03:58:16.760Z,7.40
2019-05-07T04:00:47.507Z,6.93
2019-05-07T04:03:24.246Z,9.00
2019-05-07T04:05:55.280Z,6.90
2019-05-07T04:08:24.692Z,7.27
2019-05-07T04:10:54.610Z,7.53
2019-05-07T04:13:24.590Z,7.30
2019-05-07T04:15:54.389Z,8.10
2019-05-07T04:18:28.018Z,11.33
2019-05-07T04:21:03.242Z,6.07
2019-05-07T04:23:29.467Z,4.43
2019-05-07T04:26:18.384Z,7.83
2019-05-07T04:29:06.455Z,8.17
2019-05-07T04:31:43.021Z,8.47
2019-05-07T04:34:28.416Z,6.33
2019-05-07T04:36:57.803Z,6.67
2019-05-07T04:39:29.679Z,9.27
2019-05-07T04:42:05.948Z,8.07
2019-05-07T04:44:35.959Z,6.43
2019-05-07T04:47:07.106Z,6.97
2019-05-07T04:49:43.675Z,9.97
2019-05-07T04:52:20.023Z,7.43
2019-05-07T04:54:53.017Z,8.33
2019-05-07T04:57:28.250Z,7.57
2019-05-07T04:59:59.250Z,9.77
2019-05-07T05:02:59.849Z,9.50
2019-05-07T05:05:29.293Z,6.53
2019-05-07T05:07:58.726Z,5.97
2019-05-07T05:10:29.083Z,9.17
2019-05-07T05:13:03.140Z,7.10
2019-05-07T05:15:33.626Z,5.53
2019-05-07T05:18:09.627Z,7.37
2019-05-07T05:20:51.928Z,6.57
2019-05-07T05:23:45.471Z,9.73
2019-05-07T05:26:15.162Z,10.70
2019-05-07T05:28:53.966Z,8.10
2019-05-07T05:31:33.954Z,6.97
2019-05-07T05:34:04.306Z,8.57
2019-05-07T05:36:35.027Z,8.43
2019-05-07T05:45:38.787Z,6.27
2019-05-07T05:48:37.326Z,5.40
2019-05-07T05:51:27.692Z,9.70
2019-05-07T05:54:03.765Z,6.70
2019-05-07T05:56:56.695Z,4.80
2019-05-07T05:59:51.744Z,6.43
2019-05-07T06:02:43.926Z,7.27
2019-05-07T06:05:12.987Z,3.97
2019-05-07T06:07:52.126Z,7.67
2019-05-07T06:10:42.446Z,5.90
2019-05-07T06:13:23.986Z,8.50
2019-05-07T06:16:05.736Z,7.60
2019-05-07T06:18:46.657Z,9.13
2019-05-07T06:21:36.754Z,6.63
2019-05-07T06:24:11.900Z,9.73
2019-05-07T06:26:48.946Z,5.10
2019-05-07T06:29:23.135Z,6.07
2019-05-07T06:32:02.757Z,9.33
2019-05-07T06:34:34.230Z,7.80
2019-05-07T06:37:03.700Z,6.60
2019-05-07T06:39:42.177Z,8.80
2019-05-07T06:42:42.999Z,11.60
2019-05-07T06:45:18.258Z,6.07
2019-05-07T06:47:52.034Z,8.63
2019-05-07T06:50:26.123Z,6.47
2019-05-07T06:52:56.420Z,6.27
2019-05-07T06:55:26.562Z,6.27
2019-05-07T07:06:03.563Z,4.13
2019-05-07T07:09:36.181Z,5.43
2019-05-07T14:56:32.177Z,2.93
2019-05-07T14:59:06.241Z,4.00
2019-05-07T15:01:37.257Z,5.87
2019-05-07T15:04:09.200Z,3.27
2019-05-07T15:06:38.245Z,2.80
2019-05-07T15:09:07.949Z,4.37
2019-05-07T15:11:42.484Z,3.00
2019-05-07T15:14:19.110Z,3.00
2019-05-07T15:16:51.970Z,3.40
2019-05-07T15:19:21.684Z,2.70
2019-05-07T15:21:54.311Z,2.87
2019-05-07T15:24:27.090Z,3.97
2019-05-07T15:27:00.988Z,3.00
2019-05-07T15:29:32.299Z,3.23
2019-05-07T15:32:08.429Z,3.57
2019-05-07T15:34:37.799Z,3.00
2019-05-07T16:03:46.474Z,3.40
2019-05-07T16:06:21.896Z,15.53
2019-05-07T16:09:04.815Z,2.37
2019-05-07T16:11:35.473Z,4.60
2019-05-07T16:14:32.088Z,2.73
2019-05-07T16:17:09.845Z,3.03
2019-05-07T16:19:42.756Z,3.37
2019-05-07T16:22:28.514Z,2.57
2019-05-07T16:25:04.892Z,1.70
2019-05-07T16:27:32.965Z,1.77
2019-05-07T16:30:05.890Z,1.43
2019-05-07T16:32:37.464Z,3.53
2019-05-07T16:35:09.102Z,2.77
2019-05-07T16:40:59.226Z,2.17
2019-05-07T16:43:43.272Z,2.97
2019-05-07T16:46:14.735Z,2.30
2019-05-07T16:48:46.795Z,3.37
2019-05-07T16:51:25.762Z,2.33
2019-05-07T16:59:39.852Z,2.80
2019-05-07T17:02:15.019Z,3.93
2019-05-07T17:05:03.662Z,2.93
2019-05-07T17:07:36.917Z,4.20
2019-05-07T17:10:07.540Z,3.97
2019-05-07T17:12:52.418Z,2.60
2019-05-07T17:15:24.996Z,2.63
2019-05-07T17:17:59.311Z,2.40
2019-05-07T17:20:33.662Z,3.03
2019-05-07T17:23:05.904Z,1.73
2019-05-07T17:25:39.695Z,4.10
2019-05-07T17:28:12.646Z,3.20
2019-05-07T17:31:16.681Z,4.00
2019-05-07T17:33:56.034Z,2.43
2019-05-07T17:36:34.819Z,3.80
2019-05-07T17:39:13.226Z,4.90
2019-05-07T17:41:48.286Z,3.43
2019-05-07T17:44:21.013Z,2.80
2019-05-07T17:46:51.971Z,3.53
2019-05-07T17:49:37.832Z,3.00
2019-05-07T17:52:12.540Z,5.03
2019-05-07T17:55:10.436Z,2.17
2019-05-07T17:57:46.369Z,2.10
2019-05-07T18:00:32.712Z,4.30
2019-05-07T18:03:29.380Z,3.10
2019-05-07T18:06:12.958Z,3.93
2019-05-07T18:08:52.923Z,4.17
2019-05-07T18:14:03.385Z,3.77
2019-05-07T18:16:52.683Z,4.13
2019-05-07T18:19:28.916Z,5.20
2019-05-07T18:22:37.738Z,3.20
2019-05-07T18:25:12.477Z,6.70
2019-05-07T18:28:05.801Z,4.17
2019-05-07T18:37:35.709Z,3.83
2019-05-07T18:40:55.486Z,5.57
2019-05-07T18:43:45.271Z,6.87
2019-05-07T18:46:26.932Z,4.33
2019-05-07T18:49:03.419Z,3.13
2019-05-07T18:52:18.124Z,4.07
2019-05-07T18:55:28.784Z,9.70
2019-05-07T18:58:10.119Z,3.27
2019-05-07T19:01:02.614Z,4.40
2019-05-07T21:10:22.171Z,3.47
2019-05-07T21:16:04.473Z,5.03
2019-05-07T21:40:08.312Z,2.57
2019-05-07T22:09:19.106Z,3.00
2019-05-07T22:12:54.667Z,5.30
2019-05-07T22:15:36.704Z,4.33
2019-05-07T22:21:21.725Z,3.97
2019-05-07T22:23:58.461Z,2.90
2019-05-07T22:27:05.950Z,3.53
2019-05-07T22:29:47.404Z,2.73
2019-05-07T22:32:36.456Z,4.13
2019-05-07T22:35:48.975Z,3.17
2019-05-07T22:41:19.163Z,3.50
2019-05-07T22:44:35.772Z,3.60
2019-05-07T23:02:14.103Z,2.93
2019-05-07T23:05:44.903Z,3.00
2019-05-07T23:08:55.122Z,4.50
2019-05-07T23:11:58.244Z,2.37
2019-05-07T23:28:41.965Z,3.47
2019-05-07T23:35:46.319Z,3.73
2019-05-07T23:39:17.321Z,4.60
2019-05-07T23:46:26.744Z,4.83
2019-05-07T23:50:09.819Z,5.03
2019-05-07T23:53:44.127Z,4.13
